createdAt,value
2022-09-01T00:00:39.069Z,83.97
2022-09-01T00:01:42.367Z,84.31
2022-09-01T00:02:44.745Z,84.40
2022-09-01T00:03:49.767Z,84.76
2022-09-01T00:04:56.040Z,83.94
2022-09-01T00:05:57.745Z,85.78
2022-09-01T00:07:00.084Z,85.00
2022-09-01T00:08:01.772Z,84.82
2022-09-01T00:09:05.231Z,85.27
2022-09-01T00:10:07.671Z,84.24
2022-09-01T00:11:09.340Z,84.78
2022-09-01T00:12:11.106Z,85.29
2022-09-01T00:13:12.701Z,84.60
2022-09-01T00:14:29.990Z,85.04
2022-09-01T00:15:34.313Z,84.26
2022-09-01T00:16:35.957Z,85.16
2022-09-01T00:17:37.747Z,85.06
2022-09-01T00:18:42.180Z,85.39
2022-09-01T00:19:44.650Z,85.86
2022-09-01T00:20:46.532Z,86.02
2022-09-01T00:21:48.189Z,85.60
2022-09-01T00:22:49.908Z,86.00
2022-09-01T00:23:51.679Z,86.08
2022-09-01T00:24:53.360Z,85.16
2022-09-01T00:25:55.050Z,85.11
2022-09-01T00:26:56.910Z,85.39
2022-09-01T00:28:04.823Z,84.95
2022-09-01T00:29:06.560Z,85.29
2022-09-01T00:30:08.918Z,85.39
2022-09-01T00:31:14.994Z,86.11
2022-09-01T00:32:16.754Z,85.39
2022-09-01T00:33:18.424Z,85.42
2022-09-01T00:34:20.327Z,85.52
2022-09-01T00:35:22.105Z,84.59
2022-09-01T00:36:23.799Z,84.59
2022-09-01T00:37:25.389Z,83.85
2022-09-01T00:38:27.130Z,84.46
2022-09-01T00:39:28.754Z,84.78
2022-09-01T00:40:32.063Z,84.51
2022-09-01T00:41:35.071Z,83.73
2022-09-01T00:42:36.700Z,84.26
2022-09-01T00:43:50.364Z,84.00
2022-09-01T00:44:51.965Z,84.19
2022-09-01T00:45:53.726Z,84.27
2022-09-01T00:46:56.752Z,85.26
2022-09-01T00:47:58.467Z,83.90
2022-09-01T00:49:04.362Z,83.31
2022-09-01T00:50:07.948Z,84.10
2022-09-01T00:51:10.139Z,84.77
2022-09-01T00:52:15.155Z,84.00
2022-09-01T00:53:16.793Z,84.12
2022-09-01T00:54:23.608Z,84.83
2022-09-01T00:55:27.129Z,83.91
2022-09-01T00:56:30.118Z,84.32
2022-09-01T00:57:31.759Z,85.11
2022-09-01T00:58:34.328Z,85.45
2022-09-01T00:59:36.507Z,86.09
2022-09-01T01:00:41.742Z,85.78
2022-09-01T01:01:43.650Z,86.31
2022-09-01T01:02:47.714Z,84.46
2022-09-01T01:03:49.567Z,84.15
2022-09-01T01:04:52.927Z,84.39
2022-09-01T01:05:58.131Z,84.04
2022-09-01T01:07:01.822Z,83.52
2022-09-01T01:08:04.257Z,84.08
2022-09-01T01:09:05.847Z,84.86
2022-09-01T01:10:08.034Z,85.13
2022-09-01T01:11:18.958Z,83.83
2022-09-01T01:12:20.699Z,85.40
2022-09-01T01:13:24.281Z,85.17
2022-09-01T01:14:27.862Z,85.45
2022-09-01T01:15:29.764Z,84.74
2022-09-01T01:16:31.463Z,84.66
2022-09-01T01:17:33.111Z,84.50
2022-09-01T01:18:34.785Z,85.24
2022-09-01T01:19:59.290Z,85.50
2022-09-01T01:21:25.793Z,84.78
2022-09-01T01:23:09.252Z,86.01
2022-09-01T01:24:31.671Z,85.23
2022-09-01T01:25:40.066Z,85.51
2022-09-01T01:26:42.532Z,83.75
2022-09-01T01:27:44.184Z,84.91
2022-09-01T01:28:45.790Z,86.14
2022-09-01T01:29:47.783Z,85.56
2022-09-01T01:30:52.484Z,86.80
2022-09-01T01:31:54.396Z,86.84
2022-09-01T01:32:57.920Z,84.85
2022-09-01T01:34:00.837Z,84.48
2022-09-01T01:35:05.969Z,83.98
2022-09-01T01:36:33.978Z,84.46
2022-09-01T01:37:35.793Z,84.93
2022-09-01T01:38:37.418Z,85.00
2022-09-01T01:39:40.928Z,86.43
2022-09-01T01:40:42.588Z,86.56
2022-09-01T01:41:48.882Z,86.85
2022-09-01T01:42:52.108Z,87.30
2022-09-01T01:43:53.839Z,86.70
2022-09-01T01:44:55.793Z,86.88
2022-09-01T01:46:02.634Z,86.97
2022-09-01T01:47:08.578Z,86.94
2022-09-01T01:48:10.800Z,86.30
2022-09-01T01:49:20.061Z,84.89
2022-09-01T01:50:28.587Z,85.91
2022-09-01T01:51:32.984Z,85.87
2022-09-01T01:52:34.945Z,85.59
2022-09-01T01:53:39.493Z,86.30
2022-09-01T01:54:41.703Z,87.38
2022-09-01T01:55:43.875Z,87.78
2022-09-01T01:56:45.546Z,86.52
2022-09-01T01:57:50.612Z,84.70
2022-09-01T01:58:56.470Z,84.72
2022-09-01T01:59:58.177Z,84.94
2022-09-01T02:01:00.741Z,84.36
2022-09-01T02:02:04.033Z,83.01
2022-09-01T02:03:07.616Z,83.50
2022-09-01T02:04:11.147Z,82.65
2022-09-01T02:05:13.105Z,81.53
2022-09-01T02:06:14.710Z,82.36
2022-09-01T02:07:16.849Z,83.26
2022-09-01T02:08:21.013Z,82.31
2022-09-01T02:09:23.426Z,83.31
2022-09-01T02:10:31.030Z,84.64
2022-09-01T02:11:37.991Z,83.87
2022-09-01T02:12:43.088Z,83.43
2022-09-01T02:13:46.959Z,83.04
2022-09-01T02:14:50.215Z,84.48
2022-09-01T02:15:53.960Z,83.68
2022-09-01T02:16:56.247Z,83.35
2022-09-01T02:18:00.396Z,83.26
2022-09-01T02:19:08.982Z,83.92
2022-09-01T02:20:10.745Z,84.18
2022-09-01T02:21:18.399Z,83.62
2022-09-01T02:22:21.755Z,83.12
2022-09-01T02:23:24.583Z,82.36
2022-09-01T02:24:26.484Z,82.97
2022-09-01T02:25:28.270Z,82.93
2022-09-01T02:26:43.044Z,82.14
2022-09-01T02:27:46.946Z,83.22
2022-09-01T02:28:55.759Z,83.32
2022-09-01T02:29:58.818Z,82.08
2022-09-01T02:31:02.472Z,82.25
2022-09-01T02:32:04.182Z,83.33
2022-09-01T02:33:05.803Z,82.93
2022-09-01T02:34:14.065Z,82.01
2022-09-01T02:35:16.760Z,81.96
2022-09-01T02:36:19.693Z,82.81
2022-09-01T02:37:25.590Z,82.49
2022-09-01T02:38:29.259Z,82.08
2022-09-01T02:39:33.573Z,81.99
2022-09-01T02:40:35.421Z,81.52
2022-09-01T02:41:37.062Z,81.76
2022-09-01T02:42:41.708Z,82.01
2022-09-01T02:43:46.347Z,82.01
2022-09-01T02:44:47.966Z,83.09
2022-09-01T02:45:54.443Z,84.46
2022-09-01T02:46:56.431Z,82.09
2022-09-01T02:47:59.060Z,82.59
2022-09-01T02:49:00.934Z,83.11
2022-09-01T02:50:03.665Z,82.62
2022-09-01T02:51:06.991Z,82.76
2022-09-01T02:52:08.623Z,83.09
2022-09-01T02:53:11.968Z,82.53
2022-09-01T02:54:17.642Z,82.54
2022-09-01T02:55:22.181Z,83.33
2022-09-01T02:56:25.424Z,80.65
2022-09-01T02:57:29.531Z,81.35
2022-09-01T02:58:33.109Z,82.24
2022-09-01T02:59:38.665Z,81.06
2022-09-01T03:00:43.562Z,82.18
2022-09-01T03:01:47.604Z,81.09
2022-09-01T03:02:51.534Z,82.98
2022-09-01T03:04:05.858Z,81.95
2022-09-01T03:05:08.464Z,82.67
2022-09-01T03:06:10.236Z,81.46
2022-09-01T03:07:13.869Z,80.52
2022-09-01T03:08:16.519Z,81.25
2022-09-01T03:09:18.381Z,81.37
2022-09-01T03:10:21.530Z,82.00
2022-09-01T03:11:26.483Z,82.61
2022-09-01T03:12:28.398Z,80.47
2022-09-01T03:13:31.091Z,80.25
2022-09-01T03:14:32.905Z,81.76
2022-09-01T03:15:36.594Z,80.18
2022-09-01T03:16:39.458Z,79.31
2022-09-01T03:17:41.899Z,79.59
2022-09-01T03:18:43.510Z,79.30
2022-09-01T03:19:46.816Z,80.09
2022-09-01T03:20:51.057Z,80.57
2022-09-01T03:21:52.719Z,81.34
2022-09-01T03:22:57.190Z,81.01
2022-09-01T03:24:02.034Z,81.35
2022-09-01T03:25:04.693Z,82.02
2022-09-01T03:26:06.319Z,81.50
2022-09-01T03:27:09.065Z,80.51
2022-09-01T03:28:13.193Z,80.75
2022-09-01T03:29:15.486Z,83.02
2022-09-01T03:30:17.128Z,81.85
2022-09-01T03:31:20.153Z,81.39
2022-09-01T03:32:21.959Z,82.00
2022-09-01T03:33:25.185Z,82.20
2022-09-01T03:34:27.203Z,82.58
2022-09-01T03:35:29.579Z,83.99
2022-09-01T03:36:33.396Z,84.05
2022-09-01T03:37:36.352Z,82.58
2022-09-01T03:38:38.185Z,83.13
2022-09-01T03:39:39.860Z,83.45
2022-09-01T03:40:41.576Z,83.58
2022-09-01T03:41:43.629Z,84.31
2022-09-01T03:42:45.678Z,83.97
2022-09-01T03:43:48.399Z,83.31
2022-09-01T03:44:52.014Z,83.52
2022-09-01T03:45:55.409Z,84.16
2022-09-01T03:46:58.502Z,85.11
2022-09-01T03:48:00.581Z,84.72
2022-09-01T03:49:03.647Z,84.66
2022-09-01T03:50:05.995Z,83.82
2022-09-01T03:51:07.719Z,84.89
2022-09-01T03:52:12.185Z,83.74
2022-09-01T03:53:20.117Z,83.85
2022-09-01T03:54:28.452Z,84.51
2022-09-01T03:55:32.486Z,83.72
2022-09-01T03:56:34.296Z,83.05
2022-09-01T03:57:42.878Z,83.43
2022-09-01T03:58:47.323Z,83.64
2022-09-01T03:59:49.391Z,83.02
2022-09-01T04:00:55.470Z,83.81
2022-09-01T04:01:58.009Z,83.74
2022-09-01T04:03:00.550Z,84.41
2022-09-01T04:04:03.248Z,84.30
2022-09-01T04:05:08.336Z,84.46
2022-09-01T04:06:10.775Z,85.07
2022-09-01T04:07:19.217Z,85.20
2022-09-01T04:08:21.839Z,84.80
2022-09-01T04:09:23.440Z,85.55
2022-09-01T04:10:25.054Z,85.50
2022-09-01T04:11:26.768Z,84.39
2022-09-01T04:12:29.990Z,85.24
2022-09-01T04:13:35.566Z,84.50
2022-09-01T04:14:37.179Z,85.32
2022-09-01T04:15:38.919Z,85.08
2022-09-01T04:17:00.204Z,85.58
2022-09-01T04:18:10.960Z,86.03
2022-09-01T04:19:20.672Z,87.04
2022-09-01T04:20:23.577Z,86.90
2022-09-01T04:21:25.199Z,86.42
2022-09-01T04:22:30.263Z,87.77
2022-09-01T04:23:33.981Z,87.45
2022-09-01T04:24:35.650Z,87.54
2022-09-01T04:25:39.127Z,87.00
2022-09-01T04:26:41.308Z,87.45
2022-09-01T04:27:43.181Z,87.12
2022-09-01T04:28:49.546Z,87.27
2022-09-01T04:29:57.014Z,87.00
2022-09-01T04:30:59.308Z,86.73
2022-09-01T04:32:03.738Z,85.59
2022-09-01T04:33:05.733Z,86.27
2022-09-01T04:34:16.441Z,86.43
2022-09-01T04:35:19.027Z,85.91
2022-09-01T04:36:23.722Z,85.97
2022-09-01T04:37:25.317Z,85.16
2022-09-01T04:38:29.319Z,84.96
2022-09-01T04:39:31.009Z,85.97
2022-09-01T04:40:32.708Z,85.88
2022-09-01T04:41:35.322Z,85.72
2022-09-01T04:42:36.938Z,85.18
2022-09-01T04:43:38.545Z,86.09
2022-09-01T04:44:40.297Z,85.70
2022-09-01T04:45:43.268Z,86.10
2022-09-01T04:46:48.001Z,85.48
2022-09-01T04:47:49.670Z,86.08
2022-09-01T04:48:52.540Z,86.14
2022-09-01T04:49:58.230Z,86.23
2022-09-01T04:50:59.835Z,87.57
2022-09-01T04:52:01.704Z,86.43
2022-09-01T04:53:04.690Z,85.87
2022-09-01T04:54:09.341Z,86.71
2022-09-01T04:55:17.698Z,86.16
2022-09-01T04:56:23.104Z,86.33
2022-09-01T04:57:29.378Z,85.46
2022-09-01T04:58:31.009Z,86.12
2022-09-01T04:59:33.110Z,86.08
2022-09-01T05:00:34.812Z,86.35
2022-09-01T05:01:45.785Z,85.86
2022-09-01T05:02:47.437Z,86.35
2022-09-01T05:04:01.522Z,86.21
2022-09-01T05:05:10.306Z,86.16
2022-09-01T05:06:19.651Z,85.61
2022-09-01T05:07:21.620Z,85.79
2022-09-01T05:08:24.561Z,85.40
2022-09-01T05:09:27.651Z,86.59
2022-09-01T05:10:30.140Z,85.14
2022-09-01T05:11:33.524Z,85.79
2022-09-01T05:12:35.901Z,85.27
2022-09-01T05:13:39.833Z,86.67
2022-09-01T05:14:42.518Z,85.17
2022-09-01T05:15:46.726Z,85.24
2022-09-01T05:16:48.664Z,85.64
2022-09-01T05:17:52.727Z,85.44
2022-09-01T05:18:57.144Z,85.35
2022-09-01T05:19:58.908Z,86.09
2022-09-01T05:21:09.890Z,84.93
2022-09-01T05:22:11.667Z,85.71
2022-09-01T05:23:13.308Z,85.53
2022-09-01T05:24:19.171Z,85.04
2022-09-01T05:25:21.028Z,85.93
2022-09-01T05:26:30.142Z,85.09
2022-09-01T05:27:31.765Z,86.21
2022-09-01T05:28:33.375Z,86.13
2022-09-01T05:29:38.326Z,86.86
2022-09-01T05:30:40.643Z,86.37
2022-09-01T05:31:42.688Z,86.03
2022-09-01T05:32:49.311Z,86.95
2022-09-01T05:33:51.165Z,88.03
2022-09-01T05:34:53.037Z,88.32
2022-09-01T05:36:01.317Z,86.90
2022-09-01T05:37:03.290Z,87.79
2022-09-01T05:38:05.007Z,87.00
2022-09-01T05:39:07.134Z,85.89
2022-09-01T05:40:16.433Z,86.64
2022-09-01T05:41:24.018Z,86.56
2022-09-01T05:42:27.615Z,86.63
2022-09-01T05:43:30.951Z,86.20
2022-09-01T05:44:32.752Z,85.12
2022-09-01T05:45:56.312Z,85.92
2022-09-01T05:46:59.778Z,85.77
2022-09-01T05:48:02.631Z,85.56
2022-09-01T05:49:04.336Z,85.62
2022-09-01T05:50:14.061Z,85.70
2022-09-01T05:51:42.741Z,84.73
2022-09-01T05:52:44.618Z,84.71
2022-09-01T05:53:47.219Z,84.59
2022-09-01T05:54:49.856Z,85.28
2022-09-01T05:55:54.385Z,86.60
2022-09-01T05:57:08.389Z,86.00
2022-09-01T05:58:16.631Z,85.93
2022-09-01T05:59:24.440Z,84.87
2022-09-01T06:00:34.809Z,85.20
2022-09-01T06:01:42.564Z,86.11
2022-09-01T06:02:47.178Z,85.70
2022-09-01T06:03:54.898Z,85.52
2022-09-01T06:04:57.480Z,85.26
2022-09-01T06:06:08.831Z,85.88
2022-09-01T06:07:16.336Z,86.28
2022-09-01T06:08:19.715Z,85.75
2022-09-01T06:09:23.586Z,85.57
2022-09-01T06:10:25.189Z,86.57
2022-09-01T06:11:27.163Z,86.54
2022-09-01T06:12:29.112Z,86.04
2022-09-01T06:13:30.776Z,86.73
2022-09-01T06:14:32.791Z,86.64
2022-09-01T06:15:36.182Z,86.51
2022-09-01T06:16:38.520Z,86.32
2022-09-01T06:17:40.149Z,86.36
2022-09-01T06:18:43.390Z,85.39
2022-09-01T06:19:45.142Z,86.58
2022-09-01T06:20:47.470Z,85.27
2022-09-01T06:21:49.094Z,85.44
2022-09-01T06:22:53.188Z,85.40
2022-09-01T06:23:55.859Z,86.32
2022-09-01T06:25:02.253Z,85.66
2022-09-01T06:26:05.633Z,86.76
2022-09-01T06:27:10.274Z,85.07
2022-09-01T06:28:13.133Z,84.16
2022-09-01T06:29:15.672Z,85.92
2022-09-01T06:30:24.370Z,85.47
2022-09-01T06:31:26.754Z,84.73
2022-09-01T06:32:28.902Z,85.55
2022-09-01T06:33:31.118Z,84.94
2022-09-01T06:34:33.838Z,85.53
2022-09-01T06:35:37.193Z,84.35
2022-09-01T06:36:40.795Z,85.46
2022-09-01T06:37:46.065Z,85.73
2022-09-01T06:38:48.666Z,84.58
2022-09-01T06:39:50.957Z,85.29
2022-09-01T06:41:00.559Z,84.92
2022-09-01T06:42:05.981Z,85.10
2022-09-01T06:43:08.353Z,84.29
2022-09-01T06:44:14.479Z,83.54
2022-09-01T06:45:17.681Z,83.62
2022-09-01T06:46:20.293Z,82.46
2022-09-01T06:47:22.002Z,83.71
2022-09-01T06:48:23.693Z,83.85
2022-09-01T06:49:32.623Z,84.63
2022-09-01T06:51:56.212Z,82.34
2022-09-01T06:54:36.532Z,83.46
2022-09-01T06:55:38.425Z,83.06
2022-09-01T06:56:44.725Z,83.35
2022-09-01T06:58:06.055Z,84.81
2022-09-01T06:59:08.303Z,85.03
2022-09-01T07:00:19.170Z,84.54
2022-09-01T07:01:21.401Z,84.83
2022-09-01T07:03:47.655Z,82.74
2022-09-01T07:04:50.056Z,83.82
2022-09-01T07:06:09.548Z,82.10
2022-09-01T07:09:19.079Z,82.75
2022-09-01T07:14:16.949Z,82.20
2022-09-01T07:16:52.534Z,83.38
2022-09-01T07:17:56.567Z,83.64
2022-09-01T07:19:00.166Z,85.17
2022-09-01T07:21:42.000Z,84.56
2022-09-01T07:24:09.063Z,83.54
2022-09-01T07:25:34.972Z,84.44
2022-09-01T07:26:51.031Z,85.15
2022-09-01T07:27:52.669Z,85.08
2022-09-01T07:29:06.151Z,84.83
2022-09-01T07:30:12.433Z,84.84
2022-09-01T07:32:47.301Z,84.23
2022-09-01T07:33:54.323Z,84.61
2022-09-01T07:34:56.236Z,84.51
2022-09-01T07:38:49.793Z,83.99
2022-09-01T07:42:57.898Z,83.78
2022-09-01T07:44:05.394Z,83.41
2022-09-01T07:45:27.620Z,83.94
2022-09-01T07:46:40.083Z,84.37
2022-09-01T07:47:58.364Z,83.16
2022-09-01T07:49:03.311Z,82.17
2022-09-01T07:50:38.673Z,80.99
2022-09-01T07:51:41.322Z,83.21
2022-09-01T07:52:43.389Z,82.16
2022-09-01T07:53:45.287Z,81.09
2022-09-01T07:54:46.879Z,81.33
2022-09-01T07:55:51.262Z,79.22
2022-09-01T07:56:54.860Z,79.58
2022-09-01T07:57:57.817Z,79.75
2022-09-01T07:58:59.634Z,79.14
2022-09-01T08:00:01.255Z,79.59
2022-09-01T08:01:07.139Z,80.01
2022-09-01T08:02:08.817Z,80.68
2022-09-01T08:03:10.551Z,81.04
2022-09-01T08:04:12.306Z,80.77
2022-09-01T08:05:17.915Z,80.36
2022-09-01T08:06:21.092Z,81.19
2022-09-01T08:07:23.275Z,81.44
2022-09-01T08:08:28.953Z,80.35
2022-09-01T08:09:37.480Z,78.33
2022-09-01T08:10:40.950Z,79.26
2022-09-01T08:13:04.637Z,81.12
2022-09-01T08:14:06.975Z,81.01
2022-09-01T08:16:39.317Z,80.61
2022-09-01T08:17:57.016Z,80.31
2022-09-01T08:18:59.007Z,75.17
2022-09-01T08:20:01.255Z,75.63
2022-09-01T08:21:07.877Z,78.35
2022-09-01T08:22:09.515Z,78.54
2022-09-01T08:23:12.103Z,79.18
2022-09-01T08:24:14.415Z,77.64
2022-09-01T08:25:16.466Z,75.75
2022-09-01T08:26:18.985Z,79.55
2022-09-01T08:27:20.657Z,79.16
2022-09-01T08:28:29.643Z,80.09
2022-09-01T08:29:31.387Z,77.23
2022-09-01T08:30:35.256Z,77.74
2022-09-01T08:31:36.975Z,76.17
2022-09-01T08:32:42.318Z,77.30
2022-09-01T08:33:44.651Z,77.82
2022-09-01T08:34:46.291Z,78.70
2022-09-01T08:35:48.725Z,77.74
2022-09-01T08:36:50.390Z,77.67
2022-09-01T08:37:52.114Z,78.63
2022-09-01T08:38:53.871Z,79.81
2022-09-01T08:39:55.770Z,76.94
2022-09-01T08:40:58.160Z,78.08
2022-09-01T08:42:38.861Z,76.55
2022-09-01T08:43:58.809Z,74.02
2022-09-01T08:45:04.233Z,73.93
2022-09-01T08:46:35.068Z,75.54
2022-09-01T08:47:55.960Z,74.69
2022-09-01T08:50:22.011Z,78.29
2022-09-01T08:51:40.654Z,78.35
2022-09-01T08:52:43.958Z,78.04
2022-09-01T08:53:55.437Z,78.95
2022-09-01T08:55:02.615Z,79.35
2022-09-01T08:56:05.196Z,80.88
2022-09-01T08:57:21.315Z,78.38
2022-09-01T08:58:23.160Z,80.46
2022-09-01T08:59:24.979Z,79.62
2022-09-01T09:00:29.312Z,78.36
2022-09-01T09:01:42.694Z,79.79
2022-09-01T09:03:02.463Z,75.44
2022-09-01T09:04:20.685Z,76.22
2022-09-01T09:05:22.262Z,75.89
2022-09-01T09:06:26.565Z,76.72
2022-09-01T09:07:49.832Z,78.10
2022-09-01T09:08:55.387Z,78.31
2022-09-01T09:10:16.944Z,77.00
2022-09-01T09:11:40.925Z,77.34
2022-09-01T09:13:04.976Z,76.98
2022-09-01T09:14:27.786Z,75.37
2022-09-01T09:15:37.367Z,73.73
2022-09-01T09:16:43.462Z,73.41
2022-09-01T09:17:58.995Z,73.71
2022-09-01T09:19:04.536Z,74.22
2022-09-01T09:20:06.671Z,73.20
2022-09-01T09:21:34.706Z,72.49
2022-09-01T09:22:36.507Z,74.43
2022-09-01T09:23:41.054Z,76.13
2022-09-01T09:24:52.527Z,74.80
2022-09-01T09:25:54.462Z,75.39
2022-09-01T09:26:58.909Z,76.30
2022-09-01T09:28:00.999Z,73.48
2022-09-01T09:29:02.885Z,74.00
2022-09-01T09:30:09.379Z,74.68
2022-09-01T09:31:29.959Z,73.48
2022-09-01T09:33:15.983Z,73.33
2022-09-01T09:34:16.344Z,74.32
2022-09-01T09:35:26.994Z,74.24
2022-09-01T09:36:34.822Z,74.69
2022-09-01T09:37:37.644Z,74.79
2022-09-01T09:38:40.154Z,74.64
2022-09-01T09:39:41.749Z,74.90
2022-09-01T09:41:16.004Z,76.57
2022-09-01T09:42:17.290Z,75.63
2022-09-01T09:43:19.377Z,75.09
2022-09-01T09:44:30.012Z,75.83
2022-09-01T09:45:35.224Z,75.71
2022-09-01T09:46:38.931Z,76.46
2022-09-01T09:47:44.847Z,76.24
2022-09-01T09:48:46.786Z,76.79
2022-09-01T09:49:49.011Z,76.58
2022-09-01T09:50:50.740Z,76.49
2022-09-01T09:51:54.457Z,76.29
2022-09-01T09:53:24.120Z,74.87
2022-09-01T09:54:26.543Z,72.15
2022-09-01T09:55:31.005Z,74.31
2022-09-01T09:56:33.148Z,75.73
2022-09-01T09:57:39.079Z,73.70
2022-09-01T09:58:42.196Z,71.87
2022-09-01T10:00:01.860Z,72.52
2022-09-01T10:01:17.537Z,69.09
2022-09-01T10:02:41.328Z,71.53
2022-09-01T10:03:50.002Z,69.76
2022-09-01T10:04:55.679Z,68.29
2022-09-01T10:05:57.586Z,70.40
2022-09-01T10:06:59.208Z,68.98
2022-09-01T10:08:00.860Z,69.45
2022-09-01T10:09:15.961Z,70.60
2022-09-01T10:10:29.544Z,71.35
2022-09-01T10:11:35.656Z,72.49
2022-09-01T10:12:37.767Z,67.76
2022-09-01T10:13:39.413Z,64.87
2022-09-01T10:14:53.507Z,68.52
2022-09-01T10:15:57.565Z,67.01
2022-09-01T10:17:04.450Z,66.48
2022-09-01T10:19:35.736Z,66.64
2022-09-01T10:20:38.497Z,68.42
2022-09-01T10:21:41.761Z,70.39
2022-09-01T10:22:44.822Z,65.37
2022-09-01T10:23:46.568Z,67.54
2022-09-01T10:24:50.296Z,67.07
2022-09-01T10:25:52.560Z,64.56
2022-09-01T10:26:55.738Z,63.01
2022-09-01T10:28:20.848Z,64.39
2022-09-01T10:29:34.733Z,61.57
2022-09-01T10:30:38.629Z,60.89
2022-09-01T10:31:40.930Z,63.35
2022-09-01T10:32:54.255Z,64.85
2022-09-01T10:33:58.672Z,64.29
2022-09-01T10:35:01.671Z,63.90
2022-09-01T10:36:06.950Z,61.66
2022-09-01T10:37:10.530Z,64.26
2022-09-01T10:38:17.212Z,62.07
2022-09-01T10:39:22.201Z,60.98
2022-09-01T10:40:43.796Z,63.71
2022-09-01T10:41:59.953Z,59.39
2022-09-01T10:43:30.676Z,58.17
2022-09-01T10:44:39.040Z,60.62
2022-09-01T10:45:41.230Z,61.63
2022-09-01T10:46:50.202Z,59.42
2022-09-01T10:47:52.578Z,59.99
2022-09-01T10:48:56.620Z,60.56
2022-09-01T10:50:09.889Z,61.26
2022-09-01T10:51:21.057Z,60.50
2022-09-01T10:52:41.232Z,60.36
2022-09-01T10:54:02.284Z,58.71
2022-09-01T10:55:04.505Z,58.13
2022-09-01T10:56:28.096Z,55.10
2022-09-01T10:57:48.614Z,54.63
2022-09-01T11:00:36.139Z,54.03
2022-09-01T11:01:49.010Z,54.76
2022-09-01T11:04:40.639Z,52.58
2022-09-01T11:06:11.025Z,54.22
2022-09-01T11:07:29.722Z,54.56
2022-09-01T11:08:48.283Z,53.21
2022-09-01T11:10:11.756Z,54.71
2022-09-01T11:11:36.533Z,50.82
2022-09-01T11:12:47.496Z,52.59
2022-09-01T11:13:50.683Z,53.69
2022-09-01T11:15:00.290Z,52.50
2022-09-01T11:16:53.498Z,50.68
2022-09-01T11:17:58.133Z,53.40
2022-09-01T11:19:35.005Z,51.35
2022-09-01T11:20:38.594Z,52.01
2022-09-01T11:21:41.203Z,54.15
2022-09-01T11:22:58.217Z,52.86
2022-09-01T11:25:02.580Z,51.77
2022-09-01T11:26:32.565Z,51.98
2022-09-01T11:27:49.117Z,52.32
2022-09-01T11:28:50.934Z,52.87
2022-09-01T11:29:55.520Z,49.16
2022-09-01T11:31:06.143Z,51.33
2022-09-01T11:32:07.832Z,52.12
2022-09-01T11:33:18.385Z,49.82
2022-09-01T11:34:20.632Z,51.46
2022-09-01T11:35:23.563Z,52.40
2022-09-01T11:36:37.774Z,48.19
2022-09-01T11:37:39.392Z,48.59
2022-09-01T11:38:51.489Z,47.00
2022-09-01T11:39:55.774Z,50.12
2022-09-01T11:40:58.150Z,49.51
2022-09-01T11:42:21.594Z,51.35
2022-09-01T11:43:23.501Z,50.93
2022-09-01T11:44:53.044Z,49.46
2022-09-01T11:46:02.710Z,48.34
2022-09-01T11:47:19.812Z,46.09
2022-09-01T11:48:21.463Z,47.42
2022-09-01T11:49:37.252Z,47.04
2022-09-01T11:50:40.258Z,48.97
2022-09-01T11:51:46.196Z,48.77
2022-09-01T11:53:05.837Z,48.02
2022-09-01T11:54:07.517Z,46.87
2022-09-01T11:55:09.466Z,45.79
2022-09-01T11:56:20.086Z,47.83
2022-09-01T11:57:29.132Z,48.12
2022-09-01T11:58:34.530Z,45.55
2022-09-01T11:59:37.498Z,46.29
2022-09-01T12:00:41.091Z,48.64
2022-09-01T12:01:42.764Z,47.04
2022-09-01T12:02:47.345Z,48.04
2022-09-01T12:03:51.295Z,45.61
2022-09-01T12:04:55.516Z,45.52
2022-09-01T12:06:02.854Z,46.96
2022-09-01T12:07:10.807Z,48.66
2022-09-01T12:08:14.582Z,47.68
2022-09-01T12:09:16.250Z,47.78
2022-09-01T12:10:20.168Z,45.17
2022-09-01T12:11:25.829Z,45.26
2022-09-01T12:12:30.439Z,47.63
2022-09-01T12:13:32.103Z,46.27
2022-09-01T12:14:49.081Z,46.20
2022-09-01T12:16:16.901Z,46.44
2022-09-01T12:17:20.100Z,48.67
2022-09-01T12:18:23.961Z,45.77
2022-09-01T12:19:28.891Z,47.48
2022-09-01T12:20:32.565Z,47.66
2022-09-01T12:21:38.344Z,48.58
2022-09-01T12:22:39.975Z,46.93
2022-09-01T12:23:45.345Z,47.58
2022-09-01T12:24:52.103Z,45.48
2022-09-01T12:26:24.433Z,43.17
2022-09-01T12:27:26.098Z,45.42
2022-09-01T12:28:32.283Z,43.79
2022-09-01T12:29:33.909Z,44.42
2022-09-01T12:30:39.573Z,44.64
2022-09-01T12:31:43.407Z,43.62
2022-09-01T12:32:45.175Z,44.40
2022-09-01T12:33:47.101Z,44.51
2022-09-01T12:35:01.498Z,42.93
2022-09-01T12:36:19.722Z,44.92
2022-09-01T12:37:22.450Z,45.10
2022-09-01T12:38:24.735Z,46.79
2022-09-01T12:39:26.517Z,46.13
2022-09-01T12:40:32.640Z,46.95
2022-09-01T12:41:39.502Z,45.35
2022-09-01T12:42:44.190Z,45.95
2022-09-01T12:43:47.929Z,46.24
2022-09-01T12:45:09.076Z,45.53
2022-09-01T12:46:11.030Z,46.58
2022-09-01T12:47:33.528Z,45.62
2022-09-01T12:48:37.272Z,46.13
2022-09-01T12:49:51.306Z,46.21
2022-09-01T12:50:56.071Z,45.99
2022-09-01T12:52:29.940Z,46.55
2022-09-01T12:53:36.522Z,46.38
2022-09-01T12:54:38.541Z,44.67
2022-09-01T12:55:47.642Z,44.65
2022-09-01T12:56:50.143Z,45.35
2022-09-01T12:57:59.158Z,46.14
2022-09-01T12:59:14.250Z,45.07
2022-09-01T13:00:28.696Z,43.32
2022-09-01T13:01:32.626Z,44.46
2022-09-01T13:02:36.937Z,43.34
2022-09-01T13:03:38.750Z,45.47
2022-09-01T13:04:42.068Z,43.97
2022-09-01T13:05:45.126Z,45.10
2022-09-01T13:06:46.779Z,45.22
2022-09-01T13:07:48.484Z,45.25
2022-09-01T13:08:50.147Z,45.57
2022-09-01T13:09:51.795Z,44.43
2022-09-01T13:11:14.389Z,45.58
2022-09-01T13:12:20.340Z,45.08
2022-09-01T13:13:24.131Z,43.84
2022-09-01T13:14:25.806Z,45.09
2022-09-01T13:15:28.038Z,44.89
2022-09-01T13:16:29.750Z,44.62
2022-09-01T13:17:31.428Z,45.16
2022-09-01T13:18:33.169Z,44.44
2022-09-01T13:19:34.830Z,43.51
2022-09-01T13:20:36.526Z,42.25
2022-09-01T13:22:44.808Z,45.37
2022-09-01T13:23:46.810Z,45.04
2022-09-01T13:24:48.782Z,45.02
2022-09-01T13:25:50.561Z,46.34
2022-09-01T13:28:17.883Z,47.52
2022-09-01T13:29:19.734Z,45.32
2022-09-01T13:30:25.176Z,45.10
2022-09-01T13:31:29.277Z,44.42
2022-09-01T13:32:31.570Z,45.36
2022-09-01T13:34:09.296Z,44.64
2022-09-01T13:34:56.417Z,45.52
2022-09-01T13:35:58.158Z,45.11
2022-09-01T13:36:59.822Z,42.37
2022-09-01T13:38:01.727Z,42.47
2022-09-01T13:39:03.361Z,44.63
2022-09-01T13:40:07.291Z,44.74
2022-09-01T13:41:11.694Z,45.81
2022-09-01T13:42:14.899Z,46.87
2022-09-01T13:43:20.027Z,46.91
2022-09-01T13:44:21.745Z,47.49
2022-09-01T13:45:25.846Z,50.21
2022-09-01T13:46:27.576Z,50.46
2022-09-01T13:47:30.561Z,51.84
2022-09-01T13:50:13.532Z,51.07
2022-09-01T13:51:28.448Z,50.95
2022-09-01T13:52:30.100Z,49.97
2022-09-01T13:53:31.860Z,50.50
2022-09-01T13:54:33.502Z,50.93
2022-09-01T13:55:38.532Z,51.82
2022-09-01T13:56:40.441Z,51.87
2022-09-01T13:57:42.474Z,51.94
2022-09-01T13:58:44.106Z,52.16
2022-09-01T13:59:47.955Z,52.87
2022-09-01T14:00:51.047Z,51.96
2022-09-01T14:01:53.277Z,53.50
2022-09-01T14:02:56.617Z,52.20
2022-09-01T14:04:00.593Z,52.81
2022-09-01T14:05:02.652Z,52.54
2022-09-01T14:06:04.270Z,52.52
2022-09-01T14:07:06.147Z,50.80
2022-09-01T14:08:08.083Z,51.47
2022-09-01T14:09:17.478Z,49.93
2022-09-01T14:10:19.894Z,50.90
2022-09-01T14:11:21.513Z,50.19
2022-09-01T14:12:23.204Z,48.06
2022-09-01T14:13:25.168Z,47.55
2022-09-01T14:14:26.878Z,45.40
2022-09-01T14:15:28.605Z,45.57
2022-09-01T14:16:30.359Z,44.07
2022-09-01T14:17:32.126Z,45.32
2022-09-01T14:18:36.876Z,45.55
2022-09-01T14:19:39.084Z,48.58
2022-09-01T14:20:42.328Z,50.03
2022-09-01T14:21:44.438Z,51.21
2022-09-01T14:22:48.397Z,51.33
2022-09-01T14:23:50.024Z,50.96
2022-09-01T14:24:52.357Z,48.62
2022-09-01T14:25:54.112Z,46.55
2022-09-01T14:26:55.803Z,47.03
2022-09-01T14:27:57.588Z,47.92
2022-09-01T14:29:02.644Z,48.37
2022-09-01T14:30:06.612Z,49.07
2022-09-01T14:31:09.715Z,48.96
2022-09-01T14:32:11.558Z,48.99
2022-09-01T14:33:13.346Z,49.85
2022-09-01T14:34:16.365Z,50.67
2022-09-01T14:35:19.315Z,48.63
2022-09-01T14:36:25.824Z,48.84
2022-09-01T14:37:27.499Z,49.27
2022-09-01T14:38:29.874Z,50.01
2022-09-01T14:39:31.490Z,50.50
2022-09-01T14:40:33.850Z,49.85
2022-09-01T14:41:35.573Z,50.75
2022-09-01T14:42:37.388Z,51.59
2022-09-01T14:43:42.935Z,50.63